»·PEaware :: N624LL KLGB-KSNA

N624LL :: KLGB-KSNA

FLIGHT INFORMATION

Flight Status: Arrived
Operator: Privately registered:
United States
More flights under this callsign
Pilot: Larry L. (13645)
Aircraft: Unknown
(TB20)
More flights by this aircraft type
Origin: KLGB Long Beach
United States
Destination: KSNA John Wayne-Orange Co
United States
More flights between these airports :: More routes between these airports
Route: +SLI
File this flight plan on PilotEdge
Remarks:
Altitude:
(Current/Filed)
5,000ft
Speed:
(Current/Filed)
145kts
Departed: 08-Apr-19 12:25 PM
Arrived: 08-Apr-19 12:48 PM
Distance/Time
Traveled:
16nm/0:22
Distance/Time
To Go:
Arrived

Flight Plot

Page will automatically refresh every two minutes.


Map Options




Map Legend


Flown Route
Filed Route
Departure Airport
Arrival Airport
Navaid (VOR, NDB)
Fix

Horizontal Profiles

Position Reports

Time Latitude Longitude Heading Altitude Ground
Speed
08-Apr-19 11:54 33.826087 -118.161400 134 63ft 0kts
08-Apr-19 11:55 33.825962 -118.161461 238 63ft 4kts
08-Apr-19 11:56 33.822420 -118.158891 133 63ft 29kts
08-Apr-19 11:57 33.818437 -118.157739 62 63ft 0kts
08-Apr-19 11:58 33.818437 -118.157739 62 63ft 0kts
08-Apr-19 11:59 33.818437 -118.157739 62 63ft 0kts
08-Apr-19 12:00 33.818437 -118.157739 62 63ft 0kts
08-Apr-19 12:01 33.818437 -118.157739 62 63ft 0kts
08-Apr-19 12:02 33.818437 -118.157739 62 63ft 0kts
08-Apr-19 12:03 33.818437 -118.157739 62 63ft 0kts
08-Apr-19 12:04 33.818437 -118.157739 62 63ft 0kts
08-Apr-19 12:05 33.818437 -118.157739 62 63ft 0kts
08-Apr-19 12:06 33.818437 -118.157739 62 63ft 0kts
08-Apr-19 12:07 33.818437 -118.157739 62 63ft 0kts
08-Apr-19 12:08 33.818437 -118.157739 62 63ft 0kts
08-Apr-19 12:09 33.818451 -118.157706 65 63ft 1kts
08-Apr-19 12:10 33.817225 -118.157353 175 63ft 7kts
08-Apr-19 12:11 33.816290 -118.157326 180 63ft 9kts
08-Apr-19 12:12 33.814919 -118.155287 88 63ft 11kts
08-Apr-19 12:13 33.814946 -118.151226 89 63ft 12kts
08-Apr-19 12:14 33.813675 -118.148467 97 63ft 16kts
08-Apr-19 12:15 33.809914 -118.143471 133 63ft 18kts
08-Apr-19 12:16 33.806625 -118.139530 135 63ft 11kts
08-Apr-19 12:17 33.806386 -118.139106 75 63ft 0kts
08-Apr-19 12:18 33.806386 -118.139106 75 63ft 0kts
08-Apr-19 12:19 33.806386 -118.139106 75 63ft 0kts
08-Apr-19 12:20 33.806386 -118.139106 75 63ft 0kts
08-Apr-19 12:21 33.806386 -118.139106 75 63ft 0kts
08-Apr-19 12:22 33.806386 -118.139106 75 63ft 0kts
08-Apr-19 12:23 33.806478 -118.138795 62 63ft 8kts
08-Apr-19 12:24 33.815331 -118.148005 314 402ft 105kts
08-Apr-19 12:25 33.816238 -118.180721 218 2340ft 121kts
08-Apr-19 12:26 33.783653 -118.193106 145 3604ft 142kts
08-Apr-19 12:27 33.765616 -118.155529 117 4855ft 136kts
08-Apr-19 12:28 33.744666 -118.107712 117 4843ft 177kts
08-Apr-19 12:29 33.722055 -118.056080 117 4833ft 170kts
08-Apr-19 12:30 33.701704 -118.007648 99 4813ft 169kts
08-Apr-19 12:31 33.731712 -117.969355 35 4837ft 167kts
08-Apr-19 12:32 33.769270 -117.936857 35 4837ft 167kts
08-Apr-19 12:33 33.806478 -117.905242 35 4846ft 167kts
08-Apr-19 12:34 33.842270 -117.874765 34 4867ft 167kts
08-Apr-19 12:35 33.880129 -117.843968 40 4837ft 168kts
08-Apr-19 12:36 33.894324 -117.793830 92 4184ft 181kts
08-Apr-19 12:37 33.861393 -117.769127 179 3629ft 176kts
08-Apr-19 12:38 33.859943 -117.769102 179 3569ft 178kts
08-Apr-19 12:39 33.859943 -117.769102 179 3569ft 178kts
08-Apr-19 12:40 33.857056 -117.769050 179 3526ft 176kts
08-Apr-19 12:41 33.816612 -117.792273 187 2438ft 149kts
08-Apr-19 12:42 33.778300 -117.805313 198 2082ft 139kts
08-Apr-19 12:43 33.747239 -117.823696 204 1477ft 119kts
08-Apr-19 12:44 33.719959 -117.841797 216 870ft 100kts
08-Apr-19 12:45 33.695161 -117.856362 206 396ft 109kts
08-Apr-19 12:46 33.673041 -117.870628 212 59ft 45kts
08-Apr-19 12:47 33.670246 -117.873541 302 59ft 0kts

Navigation Log

Ident Type
Flight plan parsing failed, navigation log unavailable